sensor_id;sensor_type;location;lat;lon;timestamp;temperature;humidity
2967;DHT22;1493;51.496;7.210;2022-07-29T00:00:31;20.40;99.90
2967;DHT22;1493;51.496;7.210;2022-07-29T00:02:57;20.40;99.90
2967;DHT22;1493;51.496;7.210;2022-07-29T00:05:24;20.40;99.90
2967;DHT22;1493;51.496;7.210;2022-07-29T00:07:51;20.40;99.90
2967;DHT22;1493;51.496;7.210;2022-07-29T00:10:18;20.40;99.90
2967;DHT22;1493;51.496;7.210;2022-07-29T00:12:45;20.30;99.90
2967;DHT22;1493;51.496;7.210;2022-07-29T00:15:13;20.30;99.90
2967;DHT22;1493;51.496;7.210;2022-07-29T00:17:40;20.30;99.90
2967;DHT22;1493;51.496;7.210;2022-07-29T00:20:08;20.20;99.90
2967;DHT22;1493;51.496;7.210;2022-07-29T00:22:37;20.20;99.90
2967;DHT22;1493;51.496;7.210;2022-07-29T00:25:04;20.20;99.90
2967;DHT22;1493;51.496;7.210;2022-07-29T00:27:31;20.20;99.90
2967;DHT22;1493;51.496;7.210;2022-07-29T00:29:58;20.20;99.90
2967;DHT22;1493;51.496;7.210;2022-07-29T00:32:27;20.10;99.90
2967;DHT22;1493;51.496;7.210;2022-07-29T00:34:53;20.10;99.90
2967;DHT22;1493;51.496;7.210;2022-07-29T00:37:52;20.10;99.90
2967;DHT22;1493;51.496;7.210;2022-07-29T00:40:19;20.10;99.90
2967;DHT22;1493;51.496;7.210;2022-07-29T00:42:48;20.10;99.90
2967;DHT22;1493;51.496;7.210;2022-07-29T00:45:16;20.10;99.90
2967;DHT22;1493;51.496;7.210;2022-07-29T00:47:45;20.00;99.90
2967;DHT22;1493;51.496;7.210;2022-07-29T00:50:13;20.00;99.90
2967;DHT22;1493;51.496;7.210;2022-07-29T00:52:41;20.00;99.90
2967;DHT22;1493;51.496;7.210;2022-07-29T00:55:10;20.00;99.90
2967;DHT22;1493;51.496;7.210;2022-07-29T00:57:38;20.00;99.90
2967;DHT22;1493;51.496;7.210;2022-07-29T01:00:07;20.10;99.90
2967;DHT22;1493;51.496;7.210;2022-07-29T01:02:34;20.00;99.90
2967;DHT22;1493;51.496;7.210;2022-07-29T01:05:03;20.00;99.90
2967;DHT22;1493;51.496;7.210;2022-07-29T01:07:30;20.00;99.90
2967;DHT22;1493;51.496;7.210;2022-07-29T01:09:58;20.00;99.90
2967;DHT22;1493;51.496;7.210;2022-07-29T01:12:28;20.00;99.90
2967;DHT22;1493;51.496;7.210;2022-07-29T01:14:58;19.90;99.90
2967;DHT22;1493;51.496;7.210;2022-07-29T01:17:28;19.90;99.90
2967;DHT22;1493;51.496;7.210;2022-07-29T01:20:04;19.90;99.90
2967;DHT22;1493;51.496;7.210;2022-07-29T01:22:46;19.90;99.90
2967;DHT22;1493;51.496;7.210;2022-07-29T01:25:45;19.80;99.90
2967;DHT22;1493;51.496;7.210;2022-07-29T01:31:05;19.70;99.90
2967;DHT22;1493;51.496;7.210;2022-07-29T01:33:38;19.60;99.90
2967;DHT22;1493;51.496;7.210;2022-07-29T01:36:18;19.60;99.90
2967;DHT22;1493;51.496;7.210;2022-07-29T01:38:57;19.60;99.90
2967;DHT22;1493;51.496;7.210;2022-07-29T01:41:27;19.60;99.90
2967;DHT22;1493;51.496;7.210;2022-07-29T01:44:01;19.60;99.90
2967;DHT22;1493;51.496;7.210;2022-07-29T01:46:33;19.50;99.90
2967;DHT22;1493;51.496;7.210;2022-07-29T01:49:05;19.50;99.90
2967;DHT22;1493;51.496;7.210;2022-07-29T01:51:38;19.50;99.90
2967;DHT22;1493;51.496;7.210;2022-07-29T01:54:10;19.50;99.90
2967;DHT22;1493;51.496;7.210;2022-07-29T01:56:39;19.40;99.90
2967;DHT22;1493;51.496;7.210;2022-07-29T01:59:08;19.40;99.90
2967;DHT22;1493;51.496;7.210;2022-07-29T02:01:39;19.40;99.90
2967;DHT22;1493;51.496;7.210;2022-07-29T02:04:09;19.40;99.90
2967;DHT22;1493;51.496;7.210;2022-07-29T02:06:38;19.40;99.90
2967;DHT22;1493;51.496;7.210;2022-07-29T02:09:08;19.40;99.90
2967;DHT22;1493;51.496;7.210;2022-07-29T02:11:37;19.40;99.90
2967;DHT22;1493;51.496;7.210;2022-07-29T02:14:05;19.30;99.90
2967;DHT22;1493;51.496;7.210;2022-07-29T02:16:37;19.30;99.90
2967;DHT22;1493;51.496;7.210;2022-07-29T02:19:06;19.20;99.90
2967;DHT22;1493;51.496;7.210;2022-07-29T02:21:35;19.20;99.90
2967;DHT22;1493;51.496;7.210;2022-07-29T02:24:03;19.20;99.90
2967;DHT22;1493;51.496;7.210;2022-07-29T02:26:32;19.20;99.90
2967;DHT22;1493;51.496;7.210;2022-07-29T02:29:00;19.10;99.90
2967;DHT22;1493;51.496;7.210;2022-07-29T02:31:31;19.10;99.90
2967;DHT22;1493;51.496;7.210;2022-07-29T02:34:01;19.10;99.90
2967;DHT22;1493;51.496;7.210;2022-07-29T02:36:30;19.10;99.90
2967;DHT22;1493;51.496;7.210;2022-07-29T02:38:58;19.10;99.90
2967;DHT22;1493;51.496;7.210;2022-07-29T02:41:28;19.10;99.90
2967;DHT22;1493;51.496;7.210;2022-07-29T02:43:57;19.10;99.90
2967;DHT22;1493;51.496;7.210;2022-07-29T02:46:29;19.10;99.90
2967;DHT22;1493;51.496;7.210;2022-07-29T02:49:01;19.10;99.90
2967;DHT22;1493;51.496;7.210;2022-07-29T02:51:40;19.10;99.90
2967;DHT22;1493;51.496;7.210;2022-07-29T02:54:09;19.10;99.90
2967;DHT22;1493;51.496;7.210;2022-07-29T02:56:38;19.00;99.90
2967;DHT22;1493;51.496;7.210;2022-07-29T02:59:10;19.00;99.90
2967;DHT22;1493;51.496;7.210;2022-07-29T03:01:41;19.00;99.90
2967;DHT22;1493;51.496;7.210;2022-07-29T03:04:11;19.00;99.90
2967;DHT22;1493;51.496;7.210;2022-07-29T03:06:40;19.00;99.90
2967;DHT22;1493;51.496;7.210;2022-07-29T03:09:10;18.90;99.90
2967;DHT22;1493;51.496;7.210;2022-07-29T03:11:38;18.90;99.90
2967;DHT22;1493;51.496;7.210;2022-07-29T03:14:05;18.90;99.90
2967;DHT22;1493;51.496;7.210;2022-07-29T03:16:33;18.90;99.90
2967;DHT22;1493;51.496;7.210;2022-07-29T03:19:03;18.80;99.90
2967;DHT22;1493;51.496;7.210;2022-07-29T03:21:31;18.80;99.90
2967;DHT22;1493;51.496;7.210;2022-07-29T03:23:58;18.80;99.90
2967;DHT22;1493;51.496;7.210;2022-07-29T03:26:25;18.80;99.90
2967;DHT22;1493;51.496;7.210;2022-07-29T03:28:52;18.80;99.90
2967;DHT22;1493;51.496;7.210;2022-07-29T03:31:19;18.80;99.90
2967;DHT22;1493;51.496;7.210;2022-07-29T03:33:46;18.80;99.90
2967;DHT22;1493;51.496;7.210;2022-07-29T03:36:13;18.80;99.90
2967;DHT22;1493;51.496;7.210;2022-07-29T03:38:42;18.80;99.90
2967;DHT22;1493;51.496;7.210;2022-07-29T03:41:11;18.80;99.90
2967;DHT22;1493;51.496;7.210;2022-07-29T03:43:41;18.80;99.90
2967;DHT22;1493;51.496;7.210;2022-07-29T03:46:09;18.80;99.90
2967;DHT22;1493;51.496;7.210;2022-07-29T03:48:40;18.70;99.90
2967;DHT22;1493;51.496;7.210;2022-07-29T03:51:08;18.60;99.90
2967;DHT22;1493;51.496;7.210;2022-07-29T03:53:35;18.70;99.90
2967;DHT22;1493;51.496;7.210;2022-07-29T03:56:06;18.70;99.90
2967;DHT22;1493;51.496;7.210;2022-07-29T03:58:34;18.70;99.90
2967;DHT22;1493;51.496;7.210;2022-07-29T04:01:02;18.70;99.90
2967;DHT22;1493;51.496;7.210;2022-07-29T04:03:29;18.80;99.90
2967;DHT22;1493;51.496;7.210;2022-07-29T04:06:01;18.80;99.90
2967;DHT22;1493;51.496;7.210;2022-07-29T04:08:28;18.80;99.90
2967;DHT22;1493;51.496;7.210;2022-07-29T04:10:55;18.80;99.90
2967;DHT22;1493;51.496;7.210;2022-07-29T04:13:23;18.80;99.90
2967;DHT22;1493;51.496;7.210;2022-07-29T04:15:50;18.80;99.90
2967;DHT22;1493;51.496;7.210;2022-07-29T04:18:17;18.80;99.90
2967;DHT22;1493;51.496;7.210;2022-07-29T04:20:44;18.90;99.90
2967;DHT22;1493;51.496;7.210;2022-07-29T04:23:10;19.00;99.90
2967;DHT22;1493;51.496;7.210;2022-07-29T04:25:38;19.00;99.90
2967;DHT22;1493;51.496;7.210;2022-07-29T04:28:06;18.90;99.90
2967;DHT22;1493;51.496;7.210;2022-07-29T04:30:35;18.90;99.90
2967;DHT22;1493;51.496;7.210;2022-07-29T04:33:04;18.90;99.90
2967;DHT22;1493;51.496;7.210;2022-07-29T04:35:34;18.90;99.90
2967;DHT22;1493;51.496;7.210;2022-07-29T04:38:01;18.90;99.90
2967;DHT22;1493;51.496;7.210;2022-07-29T04:40:28;18.80;99.90
2967;DHT22;1493;51.496;7.210;2022-07-29T04:42:55;18.80;99.90
2967;DHT22;1493;51.496;7.210;2022-07-29T04:45:22;18.60;99.90
2967;DHT22;1493;51.496;7.210;2022-07-29T04:47:50;18.60;99.90
2967;DHT22;1493;51.496;7.210;2022-07-29T04:50:17;18.90;99.90
2967;DHT22;1493;51.496;7.210;2022-07-29T04:52:44;19.00;99.90
2967;DHT22;1493;51.496;7.210;2022-07-29T04:55:11;19.00;99.90
2967;DHT22;1493;51.496;7.210;2022-07-29T04:57:38;18.70;99.90
2967;DHT22;1493;51.496;7.210;2022-07-29T05:00:06;18.60;99.90
2967;DHT22;1493;51.496;7.210;2022-07-29T05:02:33;18.60;99.90
2967;DHT22;1493;51.496;7.210;2022-07-29T05:05:01;18.50;99.90
2967;DHT22;1493;51.496;7.210;2022-07-29T05:07:28;18.50;99.90
2967;DHT22;1493;51.496;7.210;2022-07-29T05:09:55;18.30;99.90
2967;DHT22;1493;51.496;7.210;2022-07-29T05:12:22;17.90;99.90
2967;DHT22;1493;51.496;7.210;2022-07-29T05:14:49;18.00;99.90
2967;DHT22;1493;51.496;7.210;2022-07-29T05:17:16;18.10;99.90
2967;DHT22;1493;51.496;7.210;2022-07-29T05:19:43;18.10;99.90
2967;DHT22;1493;51.496;7.210;2022-07-29T05:22:12;18.10;99.90
2967;DHT22;1493;51.496;7.210;2022-07-29T05:24:38;18.10;99.90
2967;DHT22;1493;51.496;7.210;2022-07-29T05:27:06;18.00;99.90
2967;DHT22;1493;51.496;7.210;2022-07-29T05:29:33;18.10;99.90
2967;DHT22;1493;51.496;7.210;2022-07-29T05:31:59;18.10;99.90
2967;DHT22;1493;51.496;7.210;2022-07-29T05:34:26;18.10;99.90
2967;DHT22;1493;51.496;7.210;2022-07-29T05:36:53;18.20;99.90
2967;DHT22;1493;51.496;7.210;2022-07-29T05:39:21;18.10;99.90
2967;DHT22;1493;51.496;7.210;2022-07-29T05:41:48;18.00;99.90
2967;DHT22;1493;51.496;7.210;2022-07-29T05:44:15;17.90;99.90
2967;DHT22;1493;51.496;7.210;2022-07-29T05:46:42;17.90;99.90
2967;DHT22;1493;51.496;7.210;2022-07-29T05:49:09;17.90;99.90
2967;DHT22;1493;51.496;7.210;2022-07-29T05:51:36;17.90;99.90
2967;DHT22;1493;51.496;7.210;2022-07-29T05:54:03;18.00;99.90
2967;DHT22;1493;51.496;7.210;2022-07-29T05:56:31;17.90;99.90
2967;DHT22;1493;51.496;7.210;2022-07-29T05:58:58;17.80;99.90
2967;DHT22;1493;51.496;7.210;2022-07-29T06:01:25;17.80;99.90
2967;DHT22;1493;51.496;7.210;2022-07-29T06:03:52;17.80;99.90
2967;DHT22;1493;51.496;7.210;2022-07-29T06:06:19;17.80;99.90
2967;DHT22;1493;51.496;7.210;2022-07-29T06:08:46;17.90;99.90
2967;DHT22;1493;51.496;7.210;2022-07-29T06:11:13;17.90;99.90
2967;DHT22;1493;51.496;7.210;2022-07-29T06:13:41;18.00;99.90
2967;DHT22;1493;51.496;7.210;2022-07-29T06:16:08;18.10;99.90
2967;DHT22;1493;51.496;7.210;2022-07-29T06:18:35;18.10;99.90
2967;DHT22;1493;51.496;7.210;2022-07-29T06:21:06;18.20;99.90
2967;DHT22;1493;51.496;7.210;2022-07-29T06:23:34;18.30;99.90
2967;DHT22;1493;51.496;7.210;2022-07-29T06:26:00;18.30;99.90
2967;DHT22;1493;51.496;7.210;2022-07-29T06:28:27;18.20;99.90
2967;DHT22;1493;51.496;7.210;2022-07-29T06:30:56;18.40;99.90
2967;DHT22;1493;51.496;7.210;2022-07-29T06:33:22;18.50;99.90
2967;DHT22;1493;51.496;7.210;2022-07-29T06:35:49;18.60;99.90
2967;DHT22;1493;51.496;7.210;2022-07-29T06:38:16;18.70;99.90
2967;DHT22;1493;51.496;7.210;2022-07-29T06:40:43;18.70;99.90
2967;DHT22;1493;51.496;7.210;2022-07-29T06:43:32;18.60;99.90
2967;DHT22;1493;51.496;7.210;2022-07-29T06:46:04;18.60;99.90
2967;DHT22;1493;51.496;7.210;2022-07-29T06:48:31;18.60;99.90
2967;DHT22;1493;51.496;7.210;2022-07-29T06:50:58;18.70;99.90
2967;DHT22;1493;51.496;7.210;2022-07-29T06:53:26;18.80;99.90
2967;DHT22;1493;51.496;7.210;2022-07-29T06:55:53;18.80;99.90
2967;DHT22;1493;51.496;7.210;2022-07-29T06:58:20;18.70;99.90
2967;DHT22;1493;51.496;7.210;2022-07-29T07:00:47;18.80;99.90
2967;DHT22;1493;51.496;7.210;2022-07-29T07:03:16;18.90;99.90
2967;DHT22;1493;51.496;7.210;2022-07-29T07:05:43;18.90;99.90
2967;DHT22;1493;51.496;7.210;2022-07-29T07:08:10;18.90;99.90
2967;DHT22;1493;51.496;7.210;2022-07-29T07:10:37;19.10;99.90
2967;DHT22;1493;51.496;7.210;2022-07-29T07:13:05;19.30;99.90
2967;DHT22;1493;51.496;7.210;2022-07-29T07:15:32;19.50;99.90
2967;DHT22;1493;51.496;7.210;2022-07-29T07:17:59;19.60;99.90
2967;DHT22;1493;51.496;7.210;2022-07-29T07:20:27;19.80;99.90
2967;DHT22;1493;51.496;7.210;2022-07-29T07:22:54;19.90;99.90
2967;DHT22;1493;51.496;7.210;2022-07-29T07:25:21;19.60;99.90
2967;DHT22;1493;51.496;7.210;2022-07-29T07:27:48;19.70;99.90
2967;DHT22;1493;51.496;7.210;2022-07-29T07:30:15;19.70;99.90
2967;DHT22;1493;51.496;7.210;2022-07-29T07:32:42;19.90;99.90
2967;DHT22;1493;51.496;7.210;2022-07-29T07:35:10;20.40;99.90
2967;DHT22;1493;51.496;7.210;2022-07-29T07:37:39;20.70;99.90
2967;DHT22;1493;51.496;7.210;2022-07-29T07:40:08;20.80;99.90
2967;DHT22;1493;51.496;7.210;2022-07-29T07:42:35;21.00;99.90
2967;DHT22;1493;51.496;7.210;2022-07-29T07:45:03;21.10;99.90
2967;DHT22;1493;51.496;7.210;2022-07-29T07:47:30;21.10;99.90
2967;DHT22;1493;51.496;7.210;2022-07-29T07:49:57;21.10;99.90
2967;DHT22;1493;51.496;7.210;2022-07-29T07:52:24;21.00;99.90
2967;DHT22;1493;51.496;7.210;2022-07-29T07:54:52;21.00;99.90
2967;DHT22;1493;51.496;7.210;2022-07-29T07:57:19;21.10;99.90
2967;DHT22;1493;51.496;7.210;2022-07-29T07:59:49;21.00;99.90
2967;DHT22;1493;51.496;7.210;2022-07-29T08:02:25;21.10;99.90
2967;DHT22;1493;51.496;7.210;2022-07-29T08:04:51;21.10;99.90
2967;DHT22;1493;51.496;7.210;2022-07-29T08:07:18;21.10;99.90
2967;DHT22;1493;51.496;7.210;2022-07-29T08:09:45;21.10;99.90
2967;DHT22;1493;51.496;7.210;2022-07-29T08:12:16;21.20;99.90
2967;DHT22;1493;51.496;7.210;2022-07-29T08:14:43;21.20;99.90
2967;DHT22;1493;51.496;7.210;2022-07-29T08:17:10;21.20;99.90
2967;DHT22;1493;51.496;7.210;2022-07-29T08:19:37;21.30;99.90
2967;DHT22;1493;51.496;7.210;2022-07-29T08:22:06;21.40;99.90
2967;DHT22;1493;51.496;7.210;2022-07-29T08:24:32;21.20;99.90
2967;DHT22;1493;51.496;7.210;2022-07-29T08:27:19;21.30;99.90
2967;DHT22;1493;51.496;7.210;2022-07-29T08:29:46;21.20;99.90
2967;DHT22;1493;51.496;7.210;2022-07-29T08:32:13;21.00;99.90
2967;DHT22;1493;51.496;7.210;2022-07-29T08:34:40;20.80;99.90
2967;DHT22;1493;51.496;7.210;2022-07-29T08:37:07;20.70;99.90
2967;DHT22;1493;51.496;7.210;2022-07-29T08:39:36;20.80;99.90
2967;DHT22;1493;51.496;7.210;2022-07-29T08:42:03;20.60;99.90
2967;DHT22;1493;51.496;7.210;2022-07-29T08:44:34;20.60;99.90
2967;DHT22;1493;51.496;7.210;2022-07-29T08:47:17;20.70;99.90
2967;DHT22;1493;51.496;7.210;2022-07-29T08:49:46;20.70;99.90
2967;DHT22;1493;51.496;7.210;2022-07-29T08:52:14;20.70;99.90
2967;DHT22;1493;51.496;7.210;2022-07-29T08:54:43;20.70;99.90
2967;DHT22;1493;51.496;7.210;2022-07-29T08:57:12;20.70;99.90
2967;DHT22;1493;51.496;7.210;2022-07-29T08:59:42;20.70;99.90
2967;DHT22;1493;51.496;7.210;2022-07-29T09:02:19;20.70;99.90
2967;DHT22;1493;51.496;7.210;2022-07-29T09:04:47;20.70;99.90
2967;DHT22;1493;51.496;7.210;2022-07-29T09:07:15;20.50;99.90
2967;DHT22;1493;51.496;7.210;2022-07-29T09:09:42;20.50;99.90
2967;DHT22;1493;51.496;7.210;2022-07-29T09:12:09;20.40;99.90
2967;DHT22;1493;51.496;7.210;2022-07-29T09:14:37;20.50;99.90
2967;DHT22;1493;51.496;7.210;2022-07-29T09:17:06;20.40;99.90
2967;DHT22;1493;51.496;7.210;2022-07-29T09:19:34;20.50;99.90
2967;DHT22;1493;51.496;7.210;2022-07-29T09:22:03;20.60;99.90
2967;DHT22;1493;51.496;7.210;2022-07-29T09:24:38;20.50;99.90
2967;DHT22;1493;51.496;7.210;2022-07-29T09:27:11;20.50;99.90
2967;DHT22;1493;51.496;7.210;2022-07-29T09:29:44;20.60;99.90
2967;DHT22;1493;51.496;7.210;2022-07-29T09:32:12;20.50;99.90
2967;DHT22;1493;51.496;7.210;2022-07-29T09:34:39;20.50;99.90
2967;DHT22;1493;51.496;7.210;2022-07-29T09:37:07;20.50;99.90
2967;DHT22;1493;51.496;7.210;2022-07-29T09:39:35;20.50;99.90
2967;DHT22;1493;51.496;7.210;2022-07-29T09:42:04;20.40;99.90
2967;DHT22;1493;51.496;7.210;2022-07-29T09:44:42;20.40;99.90
2967;DHT22;1493;51.496;7.210;2022-07-29T09:47:09;20.20;99.90
2967;DHT22;1493;51.496;7.210;2022-07-29T09:49:52;20.20;99.90
2967;DHT22;1493;51.496;7.210;2022-07-29T09:52:20;20.30;99.90
2967;DHT22;1493;51.496;7.210;2022-07-29T09:54:47;20.30;99.90
2967;DHT22;1493;51.496;7.210;2022-07-29T09:57:25;20.30;99.90
2967;DHT22;1493;51.496;7.210;2022-07-29T10:00:00;20.40;99.90
2967;DHT22;1493;51.496;7.210;2022-07-29T10:02:29;20.30;99.90
2967;DHT22;1493;51.496;7.210;2022-07-29T10:04:58;20.30;99.90
2967;DHT22;1493;51.496;7.210;2022-07-29T10:07:25;20.40;99.90
2967;DHT22;1493;51.496;7.210;2022-07-29T10:09:56;20.40;99.90
2967;DHT22;1493;51.496;7.210;2022-07-29T10:12:26;20.30;99.90
2967;DHT22;1493;51.496;7.210;2022-07-29T10:14:53;20.30;99.90
2967;DHT22;1493;51.496;7.210;2022-07-29T10:17:21;20.40;99.90
2967;DHT22;1493;51.496;7.210;2022-07-29T10:19:48;20.40;99.90
2967;DHT22;1493;51.496;7.210;2022-07-29T10:22:17;20.40;99.90
2967;DHT22;1493;51.496;7.210;2022-07-29T10:24:44;20.40;99.90
2967;DHT22;1493;51.496;7.210;2022-07-29T10:27:12;20.40;99.90
2967;DHT22;1493;51.496;7.210;2022-07-29T10:29:38;20.50;99.90
2967;DHT22;1493;51.496;7.210;2022-07-29T10:32:20;20.50;99.90
2967;DHT22;1493;51.496;7.210;2022-07-29T10:35:09;20.60;99.90
2967;DHT22;1493;51.496;7.210;2022-07-29T10:37:52;20.70;99.90
2967;DHT22;1493;51.496;7.210;2022-07-29T10:40:32;20.80;99.90
2967;DHT22;1493;51.496;7.210;2022-07-29T10:43:23;20.80;99.90
2967;DHT22;1493;51.496;7.210;2022-07-29T10:45:56;20.80;99.90
2967;DHT22;1493;51.496;7.210;2022-07-29T10:48:26;20.80;99.90
2967;DHT22;1493;51.496;7.210;2022-07-29T10:50:58;20.90;99.90
2967;DHT22;1493;51.496;7.210;2022-07-29T10:53:47;20.80;99.90
2967;DHT22;1493;51.496;7.210;2022-07-29T10:56:24;20.80;99.90
2967;DHT22;1493;51.496;7.210;2022-07-29T10:59:23;20.80;99.90
2967;DHT22;1493;51.496;7.210;2022-07-29T11:01:52;20.70;99.90
2967;DHT22;1493;51.496;7.210;2022-07-29T11:07:19;20.80;99.90
2967;DHT22;1493;51.496;7.210;2022-07-29T11:10:19;20.80;99.90
2967;DHT22;1493;51.496;7.210;2022-07-29T11:12:49;20.80;99.90
2967;DHT22;1493;51.496;7.210;2022-07-29T11:15:20;20.80;99.90
2967;DHT22;1493;51.496;7.210;2022-07-29T11:18:07;20.90;99.90
2967;DHT22;1493;51.496;7.210;2022-07-29T11:20:39;20.80;99.90
2967;DHT22;1493;51.496;7.210;2022-07-29T11:23:21;20.80;99.90
2967;DHT22;1493;51.496;7.210;2022-07-29T11:26:19;20.90;99.90
2967;DHT22;1493;51.496;7.210;2022-07-29T11:28:54;20.90;99.90
2967;DHT22;1493;51.496;7.210;2022-07-29T11:31:37;21.00;99.90
2967;DHT22;1493;51.496;7.210;2022-07-29T11:34:29;21.00;99.90
2967;DHT22;1493;51.496;7.210;2022-07-29T11:37:17;21.00;99.90
2967;DHT22;1493;51.496;7.210;2022-07-29T11:39:45;21.10;99.90
2967;DHT22;1493;51.496;7.210;2022-07-29T11:42:38;21.30;99.90
2967;DHT22;1493;51.496;7.210;2022-07-29T11:45:10;21.30;99.90
2967;DHT22;1493;51.496;7.210;2022-07-29T11:47:40;21.60;99.90
2967;DHT22;1493;51.496;7.210;2022-07-29T11:50:09;21.60;99.90
2967;DHT22;1493;51.496;7.210;2022-07-29T11:52:37;21.60;99.90
2967;DHT22;1493;51.496;7.210;2022-07-29T11:55:09;21.70;99.90
2967;DHT22;1493;51.496;7.210;2022-07-29T11:57:51;21.70;99.90
2967;DHT22;1493;51.496;7.210;2022-07-29T12:00:27;21.80;99.90
2967;DHT22;1493;51.496;7.210;2022-07-29T12:02:55;21.90;99.90
2967;DHT22;1493;51.496;7.210;2022-07-29T12:05:34;22.00;99.90
2967;DHT22;1493;51.496;7.210;2022-07-29T12:08:15;22.00;99.90
2967;DHT22;1493;51.496;7.210;2022-07-29T12:10:45;22.00;99.90
2967;DHT22;1493;51.496;7.210;2022-07-29T12:13:14;22.10;99.90
2967;DHT22;1493;51.496;7.210;2022-07-29T12:15:42;22.10;99.90
2967;DHT22;1493;51.496;7.210;2022-07-29T12:18:11;22.20;99.90
2967;DHT22;1493;51.496;7.210;2022-07-29T12:20:38;22.30;99.90
2967;DHT22;1493;51.496;7.210;2022-07-29T12:23:06;22.40;99.90
2967;DHT22;1493;51.496;7.210;2022-07-29T12:25:34;22.40;99.90
2967;DHT22;1493;51.496;7.210;2022-07-29T12:28:06;22.50;99.90
2967;DHT22;1493;51.496;7.210;2022-07-29T12:30:40;22.50;99.90
2967;DHT22;1493;51.496;7.210;2022-07-29T12:33:28;22.50;99.90
2967;DHT22;1493;51.496;7.210;2022-07-29T12:35:57;22.80;99.90
2967;DHT22;1493;51.496;7.210;2022-07-29T12:38:25;22.80;99.90
2967;DHT22;1493;51.496;7.210;2022-07-29T12:40:53;23.10;99.90
2967;DHT22;1493;51.496;7.210;2022-07-29T12:43:22;23.30;99.90
2967;DHT22;1493;51.496;7.210;2022-07-29T12:45:52;23.70;99.90
2967;DHT22;1493;51.496;7.210;2022-07-29T12:48:33;24.00;99.90
2967;DHT22;1493;51.496;7.210;2022-07-29T12:51:01;24.00;99.90
2967;DHT22;1493;51.496;7.210;2022-07-29T12:53:30;24.70;99.90
2967;DHT22;1493;51.496;7.210;2022-07-29T12:55:58;25.40;99.90
2967;DHT22;1493;51.496;7.210;2022-07-29T12:58:28;25.90;99.90
2967;DHT22;1493;51.496;7.210;2022-07-29T13:01:06;25.50;99.90
2967;DHT22;1493;51.496;7.210;2022-07-29T13:03:48;25.50;99.90
2967;DHT22;1493;51.496;7.210;2022-07-29T13:06:34;26.10;99.90
2967;DHT22;1493;51.496;7.210;2022-07-29T13:12:21;26.50;99.90
2967;DHT22;1493;51.496;7.210;2022-07-29T13:14:51;26.00;99.90
2967;DHT22;1493;51.496;7.210;2022-07-29T13:17:20;25.70;99.90
2967;DHT22;1493;51.496;7.210;2022-07-29T13:20:05;25.20;99.90
2967;DHT22;1493;51.496;7.210;2022-07-29T13:22:34;25.00;99.90
2967;DHT22;1493;51.496;7.210;2022-07-29T13:25:04;24.70;99.90
2967;DHT22;1493;51.496;7.210;2022-07-29T13:27:37;24.80;99.90
2967;DHT22;1493;51.496;7.210;2022-07-29T13:30:13;24.70;99.90
2967;DHT22;1493;51.496;7.210;2022-07-29T13:32:52;24.70;99.90
2967;DHT22;1493;51.496;7.210;2022-07-29T13:35:22;24.50;99.90
2967;DHT22;1493;51.496;7.210;2022-07-29T13:37:49;24.70;99.90
2967;DHT22;1493;51.496;7.210;2022-07-29T13:40:16;25.00;99.90
2967;DHT22;1493;51.496;7.210;2022-07-29T13:42:43;25.30;99.90
2967;DHT22;1493;51.496;7.210;2022-07-29T13:45:11;25.20;99.90
2967;DHT22;1493;51.496;7.210;2022-07-29T13:47:38;24.90;99.90
2967;DHT22;1493;51.496;7.210;2022-07-29T13:50:08;24.90;99.90
2967;DHT22;1493;51.496;7.210;2022-07-29T13:52:36;24.60;99.90
2967;DHT22;1493;51.496;7.210;2022-07-29T13:55:05;24.50;99.90
2967;DHT22;1493;51.496;7.210;2022-07-29T13:57:32;24.70;99.90
2967;DHT22;1493;51.496;7.210;2022-07-29T13:59:59;24.70;99.90
2967;DHT22;1493;51.496;7.210;2022-07-29T14:02:26;24.50;99.90
2967;DHT22;1493;51.496;7.210;2022-07-29T14:04:52;24.50;99.90
2967;DHT22;1493;51.496;7.210;2022-07-29T14:07:21;24.80;99.90
2967;DHT22;1493;51.496;7.210;2022-07-29T14:09:48;25.20;99.90
2967;DHT22;1493;51.496;7.210;2022-07-29T14:12:15;25.60;99.90
2967;DHT22;1493;51.496;7.210;2022-07-29T14:14:42;25.50;99.90
2967;DHT22;1493;51.496;7.210;2022-07-29T14:17:09;25.80;99.90
2967;DHT22;1493;51.496;7.210;2022-07-29T14:19:36;25.90;99.90
2967;DHT22;1493;51.496;7.210;2022-07-29T14:22:05;25.50;99.90
2967;DHT22;1493;51.496;7.210;2022-07-29T14:24:33;25.80;99.90
2967;DHT22;1493;51.496;7.210;2022-07-29T14:27:01;25.90;99.90
2967;DHT22;1493;51.496;7.210;2022-07-29T14:29:28;26.00;99.90
2967;DHT22;1493;51.496;7.210;2022-07-29T14:31:55;26.30;99.90
2967;DHT22;1493;51.496;7.210;2022-07-29T14:34:21;27.00;99.90
2967;DHT22;1493;51.496;7.210;2022-07-29T14:36:48;27.60;99.90
2967;DHT22;1493;51.496;7.210;2022-07-29T14:39:15;27.70;99.90
2967;DHT22;1493;51.496;7.210;2022-07-29T14:41:43;27.60;99.90
2967;DHT22;1493;51.496;7.210;2022-07-29T14:44:10;28.10;99.90
2967;DHT22;1493;51.496;7.210;2022-07-29T14:46:37;28.50;99.90
2967;DHT22;1493;51.496;7.210;2022-07-29T14:49:04;28.90;99.90
2967;DHT22;1493;51.496;7.210;2022-07-29T14:51:32;29.60;99.90
2967;DHT22;1493;51.496;7.210;2022-07-29T14:53:59;30.10;99.90
2967;DHT22;1493;51.496;7.210;2022-07-29T14:56:26;29.40;99.90
2967;DHT22;1493;51.496;7.210;2022-07-29T14:58:56;29.60;99.90
2967;DHT22;1493;51.496;7.210;2022-07-29T15:01:23;29.20;99.90
2967;DHT22;1493;51.496;7.210;2022-07-29T15:03:51;29.20;99.90
2967;DHT22;1493;51.496;7.210;2022-07-29T15:06:17;29.40;99.90
2967;DHT22;1493;51.496;7.210;2022-07-29T15:08:44;29.20;99.90
2967;DHT22;1493;51.496;7.210;2022-07-29T15:11:11;29.80;99.90
2967;DHT22;1493;51.496;7.210;2022-07-29T15:13:38;30.40;99.90
2967;DHT22;1493;51.496;7.210;2022-07-29T15:16:06;30.40;99.90
2967;DHT22;1493;51.496;7.210;2022-07-29T15:18:34;29.80;99.90
2967;DHT22;1493;51.496;7.210;2022-07-29T15:21:04;30.20;99.90
2967;DHT22;1493;51.496;7.210;2022-07-29T15:23:32;29.60;99.90
2967;DHT22;1493;51.496;7.210;2022-07-29T15:26:01;29.90;99.90
2967;DHT22;1493;51.496;7.210;2022-07-29T15:28:27;29.90;99.90
2967;DHT22;1493;51.496;7.210;2022-07-29T15:30:54;30.10;99.90
2967;DHT22;1493;51.496;7.210;2022-07-29T15:33:23;30.40;99.90
2967;DHT22;1493;51.496;7.210;2022-07-29T15:35:50;30.40;99.90
2967;DHT22;1493;51.496;7.210;2022-07-29T15:38:17;30.60;99.90
2967;DHT22;1493;51.496;7.210;2022-07-29T15:40:44;30.60;99.90
2967;DHT22;1493;51.496;7.210;2022-07-29T15:43:17;29.40;99.90
2967;DHT22;1493;51.496;7.210;2022-07-29T15:45:44;29.00;99.90
2967;DHT22;1493;51.496;7.210;2022-07-29T15:48:40;29.10;99.90
2967;DHT22;1493;51.496;7.210;2022-07-29T15:51:07;29.50;99.90
2967;DHT22;1493;51.496;7.210;2022-07-29T15:53:34;29.40;99.90
2967;DHT22;1493;51.496;7.210;2022-07-29T15:56:01;28.70;99.90
2967;DHT22;1493;51.496;7.210;2022-07-29T15:58:29;28.20;99.90
2967;DHT22;1493;51.496;7.210;2022-07-29T16:00:55;28.20;99.90
2967;DHT22;1493;51.496;7.210;2022-07-29T16:03:23;28.20;99.90
2967;DHT22;1493;51.496;7.210;2022-07-29T16:05:51;27.90;99.90
2967;DHT22;1493;51.496;7.210;2022-07-29T16:08:18;28.00;99.90
2967;DHT22;1493;51.496;7.210;2022-07-29T16:10:45;27.80;99.90
2967;DHT22;1493;51.496;7.210;2022-07-29T16:13:12;27.60;99.90
2967;DHT22;1493;51.496;7.210;2022-07-29T16:15:41;27.70;99.90
2967;DHT22;1493;51.496;7.210;2022-07-29T16:18:08;27.50;99.90
2967;DHT22;1493;51.496;7.210;2022-07-29T16:20:35;27.20;99.90
2967;DHT22;1493;51.496;7.210;2022-07-29T16:23:03;27.00;99.90
2967;DHT22;1493;51.496;7.210;2022-07-29T16:25:30;26.90;99.90
2967;DHT22;1493;51.496;7.210;2022-07-29T16:27:57;26.60;99.90